Flight Track Log - Related Links

Times and Time Zones

All times are in EST time to prevent confusion due to time zone crossing. See the N789EX flight status page for this flight to view local times or setup timezone preferences in your user account.

Time Position Orientation Groundspeed Altitude Reporting Facility
EST Latitude Longitude Course Direction KTS MPH feet Rate Location/Type
Fri 01:19:00 PM 47.3034 -120.1248 262° West  Level Estimated
Fri 01:20:00 PM 47.3216 -120.2852 280° West  Level Estimated
Fri 01:21:00 PM 47.3396 -120.4463 252° West  Level Estimated
Fri 01:21:54 PM 47.2166 -120.3570 252° West 385 443 20,000  Level FlightAware ADS-B
Fri 01:22:24 PM 47.1966 -120.4280 248° West 379 436 20,000  Level FlightAware ADS-B
Fri 01:22:54 PM 47.1762 -120.5020 248° West 392 451 20,000  Level FlightAware ADS-B
Fri 01:23:25 PM 47.1552 -120.5760 247° West 388 447 20,000  Level FlightAware ADS-B
Fri 01:23:55 PM 47.1346 -120.6490 247° West 383 441 20,000  Level FlightAware ADS-B
Fri 01:24:25 PM 47.1141 -120.7220 248° West 388 447 20,000  Level FlightAware ADS-B
Fri 01:24:55 PM 47.0935 -120.7950 248° West 388 447 20,000  Level FlightAware ADS-B
Fri 01:25:26 PM 47.0724 -120.8690 247° West 394 453 20,000  Level FlightAware ADS-B
Fri 01:25:56 PM 47.0504 -120.9470 248° West 415 478 20,000  Level FlightAware ADS-B
Fri 01:26:26 PM 47.0279 -121.0250 247° West 422 486 20,000  Level FlightAware ADS-B
Fri 01:26:56 PM 47.0052 -121.1040 247° West 417 480 20,000  Level FlightAware ADS-B
Fri 01:27:27 PM 46.9824 -121.1830 247° West 415 478 20,000  Level FlightAware ADS-B
Fri 01:27:57 PM 46.9599 -121.2610 247° West 416 479 20,000  Level FlightAware ADS-B
Fri 01:28:27 PM 46.9375 -121.3390 247° West 414 476 20,000  Level FlightAware ADS-B
Fri 01:28:57 PM 46.9151 -121.4160 247° West 412 474 20,000  Level FlightAware ADS-B
Fri 01:29:28 PM 46.8926 -121.4930 247° West 408 470 20,000  Level FlightAware ADS-B
Fri 01:29:59 PM 46.8696 -121.5720 247° West 406 467 20,000  Level FlightAware ADS-B
Fri 01:30:29 PM 46.8473 -121.6490 247° West 411 473 20,000  Level FlightAware ADS-B
Fri 01:30:59 PM 46.8246 -121.7250 246° West 412 474 20,000  Level FlightAware ADS-B
Fri 01:31:29 PM 46.8020 -121.8020 247° West 407 468 20,000  Level FlightAware ADS-B
Fri 01:31:59 PM 46.7798 -121.8770 247° West 407 468 20,000  Level FlightAware ADS-B
Fri 01:32:29 PM 46.7570 -121.9540 247° West 406 467 20,000  Level FlightAware ADS-B
Fri 01:33:00 PM 46.7343 -122.0300 246° West 408 470 20,000  Level FlightAware ADS-B
Fri 01:33:30 PM 46.7117 -122.1060 247° West 407 468 20,000  Level FlightAware ADS-B
Fri 01:34:00 PM 46.6890 -122.1810 246° West 406 467 20,000  Level FlightAware ADS-B
Fri 01:34:31 PM 46.6663 -122.2570 247° West 408 470 20,000  Level FlightAware ADS-B
Fri 01:35:01 PM 46.6436 -122.3330 247° West 410 472 20,000  Level FlightAware ADS-B
Fri 01:35:31 PM 46.6207 -122.4080 246° West 398 458 20,000  Level FlightAware ADS-B
Fri 01:36:01 PM 46.5988 -122.4800 246° West 378 435 20,000  Level FlightAware ADS-B
Fri 01:36:32 PM 46.5775 -122.5500 246° West 378 435 20,000  Level FlightAware ADS-B
Fri 01:37:02 PM 46.5564 -122.6200 246° West 377 434 20,000  Level FlightAware ADS-B
Fri 01:37:32 PM 46.5351 -122.6900 246° West 375 432 20,000  Level FlightAware ADS-B
Fri 01:38:02 PM 46.5139 -122.7580 246° West 371 427 20,000  Level FlightAware ADS-B
Fri 01:38:32 PM 46.4928 -122.8270 246° West 374 430 20,000  Level FlightAware ADS-B
Fri 01:39:09 PM 46.4671 -122.9110 246° West 372 428 20,000  Level FlightAware ADS-B
Fri 01:39:39 PM 46.4457 -122.9800 246° West 373 429 20,000  Level FlightAware ADS-B
Fri 01:40:09 PM 46.4241 -123.0490 246° West 375 432 20,000  Level FlightAware ADS-B
Fri 01:40:40 PM 46.4023 -123.1190 246° West 374 430 20,000  Level FlightAware ADS-B
Fri 01:41:19 PM 46.3749 -123.2070 246° West 375 432 20,000  Level FlightAware ADS-B
Fri 01:41:49 PM 46.3534 -123.2760 246° West 375 432 20,000  Level FlightAware ADS-B
Fri 01:42:19 PM 46.3319 -123.3440 245° Southwest 373 429 20,000  Level FlightAware ADS-B
Fri 01:42:49 PM 46.3103 -123.4130 246° West 373 429 20,000  Level FlightAware ADS-B
Fri 01:43:20 PM 46.2884 -123.4820 245° Southwest 374 430 20,000  Level FlightAware ADS-B
Fri 01:43:50 PM 46.2668 -123.5510 246° West 375 432 20,000  Level FlightAware ADS-B
Fri 01:44:20 PM 46.2448 -123.6200 245° Southwest 375 432 20,000  Level FlightAware ADS-B
Fri 01:44:51 PM 46.2228 -123.6890 245° Southwest 373 429 20,000 -295 Level FlightAware ADS-B
Fri 01:45:21 PM 46.2012 -123.7570 245° Southwest 370 426 19,700 -1,222 Descending FlightAware ADS-B
Fri 01:45:45 PM 46.1839 -123.8100 245° Southwest 368 423 18,900 -1,941 Descending FlightAware ADS-B
Fri 01:45:55 PM 46.1740 -123.8310 236° Southwest 371 427 18,600 -1,667 Descending FlightAware ADS-B
Fri 01:46:03 PM 46.1649 -123.8450 227° Southwest 375 432 18,400 -1,385 Descending FlightAware ADS-B
Fri 01:46:08 PM 46.1587 -123.8530 222° Southwest 377 434 18,300 -1,875 Descending FlightAware ADS-B
Fri 01:46:19 PM 46.1427 -123.8690 215° Southwest 385 443 17,900 -2,250 Descending FlightAware ADS-B
Fri 01:46:24 PM 46.1347 -123.8750 207° Southwest 389 448 17,700 -2,308 Descending FlightAware ADS-B
Fri 01:46:32 PM 46.1204 -123.8830 201° Southwest 396 456 17,400 -2,000 Descending FlightAware ADS-B
Fri 01:46:45 PM 46.0971 -123.8890 190° South 402 463 17,000 -1,636 Descending FlightAware ADS-B
Fri 01:47:16 PM 46.0409 -123.8950 184° South 400 460 16,200 -1,839 Descending FlightAware ADS-B
Fri 01:47:47 PM 45.9851 -123.9010 184° South 390 449 15,100 -2,095 Descending FlightAware ADS-B
Fri 01:48:19 PM 45.9270 -123.9070 184° South 387 445 14,000 -1,517 Descending FlightAware ADS-B
Fri 01:49:14 PM 45.8525 -123.9164 184° South 383 441 12,900 -1,086 Descending Seattle Center
Fri 01:50:15 PM 45.7506 -123.9286 185° South 371 427 11,900 -492 Descending Seattle Center
Fri 01:51:16 PM 45.6486 -123.9414 185° South 305 351 11,900  Level Seattle Center
Fri 01:52:17 PM 45.5678 -123.9514 185° South 294 338 11,900  Level Seattle Center
Fri 01:53:18 PM 45.4878 -123.9592 184° South 290 334 11,900  Level Seattle Center
Fri 01:54:19 PM 45.4078 -123.9672 184° South 288 331 11,900 -49 Level Seattle Center
Fri 01:55:20 PM 45.3306 -123.9772 185° South 283 326 11,800 -443 Descending Seattle Center
Fri 01:56:21 PM 45.2528 -123.9861 185° South 281 323 11,000 -393 Descending Seattle Center
Fri 01:57:22 PM 45.1531 -123.9958 184° South 335 386 11,000  Level Seattle Center
Fri 01:58:23 PM 45.0536 -124.0075 185° South 355 409 11,000  Level Seattle Center
Fri 01:59:24 PM 44.9567 -124.0181 184° South 357 411 11,000 49 Level Seattle Center
Fri 02:00:25 PM 44.8392 -124.0325 185° South 357 411 11,100 197 Climbing Seattle Center
Fri 02:01:26 PM 44.7411 -124.0433 184° South 357 411 11,400 98 Climbing Seattle Center
Fri 02:02:27 PM 44.6436 -124.0539 184° South 356 410 11,300 -49 Descending Seattle Center
Fri 02:03:28 PM 44.5417 -124.0653 185° South 358 412 11,300  Level Seattle Center
Fri 02:04:29 PM 44.4408 -124.0717 183° South 363 418 11,300  Level Seattle Center
Fri 02:05:30 PM 44.3406 -124.0789 183° South 364 419 11,300  Level Seattle Center
Fri 02:06:31 PM 44.2294 -124.0858 183° South 365 420 11,300  Level Seattle Center
Fri 02:07:32 PM 44.1264 -124.0922 183° South 365 420 11,300  Level Seattle Center
Fri 02:08:33 PM 44.0278 -124.0983 183° South 353 406 11,300  Level Seattle Center
Fri 02:09:34 PM 43.9461 -124.1056 184° South 300 345 11,300  Level Seattle Center
Fri 02:10:35 PM 43.8644 -124.1092 182° South 290 334 11,300  Level Seattle Center
Fri 02:11:36 PM 43.7836 -124.1142 183° South 288 331 11,300  Level Seattle Center
Fri 02:12:37 PM 43.7122 -124.1169 182° South 271 312 11,300  Level Seattle Center
Fri 02:13:38 PM 43.6389 -124.1217 183° South 267 307 11,300  Level Seattle Center
Fri 02:14:39 PM 43.5689 -124.1269 183° South 261 300 11,300  Level Seattle Center
Fri 02:15:41 PM 43.5000 -124.1308 182° South 253 291 11,300  Level Seattle Center
Fri 02:16:42 PM 43.4297 -124.1358 183° South 250 288 11,300  Level Seattle Center
Fri 02:17:43 PM 43.3617 -124.1400 183° South 246 283 11,300  Level Seattle Center
Fri 02:18:44 PM 43.2975 -124.1431 182° South 239 275 11,300 -49 Level Seattle Center
Fri 02:19:45 PM 43.2264 -124.1508 185° South 254 292 11,200 -148 Descending Seattle Center
Fri 02:20:46 PM 43.1389 -124.1558 182° South 309 356 11,000 -98 Descending Seattle Center
Fri 02:21:47 PM 43.0489 -124.1606 182° South 321 369 11,000 -49 Level Seattle Center
Fri 02:22:48 PM 42.9444 -124.1686 183° South 329 379 10,900  Descending Seattle Center
Fri 02:23:49 PM 42.8608 -124.1728 182° South 304 350 11,000 49 Climbing Seattle Center
Fri 02:24:50 PM 42.7814 -124.1789 183° South 290 334 11,000  Level Seattle Center
Fri 02:25:51 PM 42.7036 -124.1811 181° South 279 321 11,000  Level Seattle Center
Fri 02:26:52 PM 42.6300 -124.1861 183° South 267 307 11,000  Level Seattle Center
Fri 02:27:53 PM 42.5561 -124.1911 183° South 267 307 11,000  Level Seattle Center
Fri 02:28:54 PM 42.4889 -124.1953 183° South 245 282 11,000  Level Seattle Center
Fri 02:29:55 PM 42.4106 -124.2006 183° South 234 269 11,000  Level Seattle Center
Fri 02:30:56 PM 42.3444 -124.2050 183° South 236 272 11,000  Level Seattle Center
Fri 02:31:57 PM 42.2792 -124.2092 183° South 237 273 11,000  Level Seattle Center
Fri 02:32:58 PM 42.2094 -124.2144 183° South 253 291 11,000  Level Seattle Center
Fri 02:33:59 PM 42.1189 -124.2183 182° South 319 367 11,000 -49 Level Seattle Center
Fri 02:35:00 PM 42.0314 -124.2236 183° South 317 365 10,900  Descending Seattle Center
Fri 02:36:01 PM 41.9536 -124.2283 183° South 277 319 11,000 49 Climbing Seattle Center
Fri 02:37:02 PM 41.8811 -124.2331 183° South 261 300 11,000  Level Seattle Center
Fri 02:38:03 PM 41.8056 -124.2381 183° South 267 307 11,000  Level Seattle Center
Fri 02:39:04 PM 41.7325 -124.2408 182° South 265 305 11,000  Level Seattle Center
Fri 02:40:05 PM 41.6606 -124.2381 178° South 262 302 11,000  Level Seattle Center
Fri 02:41:06 PM 41.5947 -124.2394 181° South 244 281 11,000  Level Seattle Center
Fri 02:42:07 PM 41.5136 -124.2378 179° South 242 278 11,000  Level Seattle Center
Fri 02:43:08 PM 41.4508 -124.2375 180° South 233 268 11,000  Level Seattle Center
Fri 02:44:09 PM 41.3917 -124.2364 179° South 220 253 11,000  Level Seattle Center
Fri 02:45:10 PM 41.3347 -124.2372 181° South 209 241 11,000  Level Seattle Center
Fri 02:46:11 PM 41.2778 -124.2361 179° South 206 237 11,000  Level Seattle Center
Fri 02:47:12 PM 41.2200 -124.2356 180° South 206 237 11,000  Level Seattle Center
Fri 02:48:13 PM 41.1628 -124.2361 180° South 207 238 11,000  Level Seattle Center
Fri 02:49:14 PM 41.1050 -124.2358 180° South 207 238 11,000  Level Seattle Center
Fri 02:50:15 PM 41.0478 -124.2369 181° South 207 238 11,000  Level Seattle Center
Fri 02:51:16 PM 40.9911 -124.2361 179° South 205 236 11,000  Level Seattle Center
Fri 02:52:18 PM 40.9344 -124.2361 180° South 205 236 11,000  Level Seattle Center
Fri 02:53:19 PM 40.8675 -124.2356 180° South 203 234 11,000  Level Seattle Center
Fri 02:54:20 PM 40.7944 -124.2369 181° South 243 280 11,000  Level Seattle Center
Fri 02:55:21 PM 40.7119 -124.2411 182° South 278 320 11,000 -49 Level Seattle Center
Fri 02:56:22 PM 40.6478 -124.2714 200° South 267 307 10,900  Descending Seattle Center
Fri 02:57:23 PM 40.6908 -124.2842 347° North 237 273 11,000 49 Climbing Seattle Center
Fri 02:58:24 PM 40.7497 -124.2658 13° North 228 262 11,000  Level Seattle Center
Fri 02:59:25 PM 40.8089 -124.2611 North 219 252 11,000  Level Seattle Center
Fri 03:00:27 PM 40.8611 -124.2658 356° North 204 235 11,000  Level Seattle Center
Fri 03:01:28 PM 40.9094 -124.2669 359° North 188 216 11,000  Level Seattle Center
Fri 03:02:29 PM 40.9567 -124.2656 North 178 205 11,000  Level Seattle Center
Fri 03:03:30 PM 41.0006 -124.2642 North 168 193 11,000  Level Seattle Center
Fri 03:04:31 PM 41.0506 -124.2617 North 156 180 11,000  Level Seattle Center
Fri 03:05:32 PM 41.1028 -124.2617 360° North 184 212 11,000  Level Seattle Center
Fri 03:06:34 PM 41.1689 -124.2653 358° North 220 253 11,000 -49 Level Seattle Center
Fri 03:07:35 PM 41.2347 -124.2697 357° North 233 268 10,900  Descending Seattle Center
Fri 03:08:36 PM 41.2942 -124.2681 North 221 254 11,000 49 Climbing Seattle Center
Fri 03:09:37 PM 41.3533 -124.2628 North 212 244 11,000  Level Seattle Center
Fri 03:10:38 PM 41.4094 -124.2600 North 207 238 11,000  Level Seattle Center
Fri 03:11:39 PM 41.4611 -124.2561 North 192 221 11,000  Level Seattle Center
Fri 03:12:40 PM 41.5136 -124.2517 North 189 217 11,000 -49 Level Seattle Center
Fri 03:13:41 PM 41.5614 -124.2500 North 178 205 10,900  Descending Seattle Center
Fri 03:14:42 PM 41.6142 -124.2475 North 163 188 11,000 49 Climbing Seattle Center
Fri 03:15:44 PM 41.6572 -124.2458 North 156 180 11,000  Level Seattle Center
Fri 03:16:45 PM 41.6981 -124.2422 North 150 173 11,000  Level Seattle Center
Fri 03:17:46 PM 41.7353 -124.2428 359° North 138 159 11,000  Level Seattle Center
Fri 03:18:47 PM 41.7886 -124.2481 356° North 190 219 11,000  Level Seattle Center
Fri 03:19:48 PM 41.8486 -124.2586 353° North 216 249 11,000 -49 Level Seattle Center
Fri 03:20:49 PM 41.9108 -124.2697 352° North 223 257 10,900  Descending Seattle Center
Fri 03:21:50 PM 41.9697 -124.2700 360° North 218 251 11,000  Climbing Seattle Center
Fri 03:22:51 PM 42.0269 -124.2586 North 210 242 10,900  Descending Seattle Center
Fri 03:23:52 PM 42.0789 -124.2594 359° North 188 216 11,000 49 Climbing Seattle Center
Fri 03:24:53 PM 42.1311 -124.2550 North 186 214 11,000  Level Seattle Center
Fri 03:25:54 PM 42.1794 -124.2533 North 174 200 11,000  Level Seattle Center
Fri 03:26:55 PM 42.2361 -124.2486 North 169 194 11,000  Level Seattle Center
Fri 03:27:56 PM 42.2775 -124.2467 North 154 177 11,000  Level Seattle Center
Fri 03:28:57 PM 42.3192 -124.2447 North 150 173 11,000  Level Seattle Center
Fri 03:29:58 PM 42.3631 -124.2394 North 159 183 11,000  Level Seattle Center
Fri 03:30:59 PM 42.4028 -124.2383 North 144 166 11,000  Level Seattle Center
Fri 03:32:00 PM 42.4400 -124.2350 North 134 154 11,000  Level Seattle Center
Fri 03:33:01 PM 42.4869 -124.2364 359° North 172 198 11,000  Level Seattle Center
Fri 03:34:02 PM 42.5522 -124.2406 357° North 228 262 11,000  Level Seattle Center
Fri 03:35:03 PM 42.6147 -124.2458 356° North 226 260 11,000  Level Seattle Center
Fri 03:36:04 PM 42.6722 -124.2497 357° North 209 241 11,000  Level Seattle Center
Fri 03:37:05 PM 42.7222 -124.2486 North 184 212 11,000 -98 Level Seattle Center
Fri 03:38:06 PM 42.7736 -124.2461 North 184 212 10,800 -49 Descending Seattle Center
Fri 03:39:07 PM 42.8303 -124.2419 North 171 197 10,900 49 Climbing Seattle Center
Fri 03:40:08 PM 42.8742 -124.2403 North 159 183 10,900  Level Seattle Center
Fri 03:41:09 PM 42.9131 -124.2361 North 144 166 10,900  Level Seattle Center
Fri 03:42:10 PM 42.9514 -124.2297 North 141 162 10,900 -49 Level Seattle Center
Fri 03:43:11 PM 42.9872 -124.2558 332° Northwest 163 188 10,800 -49 Descending Seattle Center
Fri 03:44:12 PM 42.9331 -124.2658 188° South 223 257 10,800 49 Level Seattle Center
Fri 03:45:14 PM 42.8869 -124.2667 181° South 183 211 10,900 49 Climbing Seattle Center
Fri 03:46:15 PM 42.8419 -124.2631 177° South 165 190 10,900  Level Seattle Center
Fri 03:47:16 PM 42.7950 -124.2603 178° South 169 194 10,900  Level Seattle Center
Fri 03:48:17 PM 42.7464 -124.2578 178° South 172 198 10,900  Level Seattle Center
Fri 03:49:18 PM 42.6986 -124.2536 176° South 173 199 10,900 49 Level Seattle Center
Fri 03:50:19 PM 42.6417 -124.2500 177° South 172 198 11,000 49 Climbing Seattle Center
Fri 03:51:20 PM 42.5769 -124.2522 181° South 231 266 11,000  Level Seattle Center
Fri 03:52:21 PM 42.5094 -124.2536 181° South 241 277 11,000  Level Seattle Center
Fri 03:53:22 PM 42.4414 -124.2514 179° South 244 281 11,000  Level Seattle Center
Fri 03:54:23 PM 42.3750 -124.2517 180° South 240 276 11,000  Level Seattle Center
Fri 03:55:24 PM 42.3081 -124.2483 178° South 239 275 11,000  Level Seattle Center
Fri 03:56:25 PM 42.2417 -124.2472 179° South 240 276 11,000  Level Seattle Center
Fri 03:57:26 PM 42.1758 -124.2439 178° South 239 275 11,000  Level Seattle Center
Fri 03:58:28 PM 42.1097 -124.2447 181° South 237 273 11,000  Level Seattle Center
Fri 03:59:29 PM 42.0431 -124.2425 179° South 239 275 11,000 639 Level Seattle Center
Fri 04:00:30 PM 41.9836 -124.1922 148° Southeast 270 311 12,300 1,967 Climbing Seattle Center
Fri 04:01:31 PM 41.9119 -124.1225 144° Southeast 265 305 15,000 2,164 Climbing Seattle Center
Fri 04:02:32 PM 41.8497 -124.0625 144° Southeast 271 312 16,700 1,131 Climbing Seattle Center
Fri 04:03:33 PM 41.7739 -123.9969 147° Southeast 315 362 17,300 492 Climbing Seattle Center
Fri 04:04:34 PM 41.6822 -123.9153 146° Southeast 388 447 17,700 836 Climbing Seattle Center
Fri 04:05:35 PM 41.5786 -123.8242 147° Southeast 434 499 19,000 590 Climbing Seattle Center
Fri 04:06:36 PM 41.4736 -123.7286 146° Southeast 450 518 18,900  Descending Seattle Center
Fri 04:07:37 PM 41.3681 -123.6367 147° Southeast 452 520 19,000 49 Climbing Seattle Center
Fri 04:08:38 PM 41.2647 -123.5486 147° Southeast 445 512 19,000 -49 Level Seattle Center
Fri 04:09:39 PM 41.1592 -123.4581 147° Southeast 449 517 18,900  Descending Seattle Center
Fri 04:10:40 PM 41.0544 -123.3661 146° Southeast 451 519 19,000  Climbing Seattle Center
Fri 04:11:41 PM 40.9478 -123.2742 147° Southeast 455 524 18,900  Descending Seattle Center
Fri 04:12:42 PM 40.8333 -123.1744 147° Southeast 451 519 19,000 49 Climbing Seattle Center
Fri 04:13:43 PM 40.7269 -123.0844 147° Southeast 454 522 19,000  Level Seattle Center
Fri 04:14:44 PM 40.6208 -122.9936 147° Southeast 455 524 19,000  Level Seattle Center
Fri 04:15:45 PM 40.5133 -122.9033 147° Southeast 455 524 19,000  Level Oakland Center
Fri 04:16:46 PM 40.4083 -122.8136 147° Southeast 453 521 19,000  Level Oakland Center
Fri 04:17:48 PM 40.3031 -122.7247 147° Southeast 453 521 19,000  Level Oakland Center
Fri 04:18:49 PM 40.1769 -122.6189 147° Southeast 454 522 19,000  Level Oakland Center
Fri 04:19:51 PM 40.0717 -122.5319 148° Southeast 454 522 19,000  Level Oakland Center
Fri 04:20:53 PM 39.9678 -122.4439 147° Southeast 456 525 19,000  Level Oakland Center
Fri 04:21:54 PM 39.8622 -122.3572 148° Southeast 455 524 19,000  Level Oakland Center
Fri 04:22:56 PM 39.7572 -122.2700 147° Southeast 452 520 19,000 -829 Level Oakland Center
Fri 04:23:57 PM 39.6322 -122.1667 148° Southeast 447 514 17,300 -1,707 Descending Oakland Center
Fri 04:24:59 PM 39.5319 -122.0844 148° Southeast 432 497 15,500 -1,122 Descending Oakland Center
Fri 04:26:00 PM 39.4439 -122.0128 148° Southeast 423 487 15,000 -246 Descending Oakland Center
Fri 04:27:01 PM 39.3442 -121.9328 148° Southeast 422 486 15,000  Level Oakland Center
Fri 04:28:03 PM 39.2244 -121.8350 148° Southeast 425 489 15,000 -1,024 Level Oakland Center
Fri 04:29:04 PM 39.1272 -121.7536 147° Southeast 421 484 12,900 -1,854 Descending Oakland Center
Fri 04:30:06 PM 39.0447 -121.6744 143° Southeast 378 435 11,200 -1,464 Descending Oakland Center
Fri 04:33:55 PM 38.8588 -121.3450 143° Southeast 218 251 5,800 -1,262 Descending FlightAware ADS-B (KMHR)
Fri 04:36:50 PM 38.7467 -121.1515 127° Southeast 209 241 2,700 -861 Descending FlightAware ADS-B (KMHR)
Fri 04:37:31 PM 38.7172 -121.1223 142° Southeast 209 241 2,700  Level FlightAware ADS-B (KMHR)
Fri 04:37:50 PM 38.7004 -121.1076 146° Southeast 201 231 2,700 -158 Level FlightAware ADS-B (KMHR)
Fri 04:38:09 PM 38.6879 -121.1015 159° South 186 214 2,600 -300 Descending FlightAware ADS-B (KMHR)
Fri 04:38:30 PM 38.6677 -121.1092 197° South 186 214 2,500 -171 Descending FlightAware ADS-B (KMHR)
Fri 04:38:44 PM 38.6599 -121.1145 208° Southwest 182 209 2,500 367 Level FlightAware ADS-B (KMHR)
Fri 04:39:19 PM 38.6414 -121.1450 208° Southwest 185 213 2,800 -371 Climbing Oakland Center
Fri 04:40:21 PM 38.6147 -121.1914 234° Southwest 175 201 1,900 -878 Descending Oakland Center
Fri 04:41:22 PM 38.5875 -121.2397 234° Southwest 171 197 1,000 -878 Descending Oakland Center
Fri 04:42:24 PM 38.5600 -121.2861 233° Southwest 166 191 100 -439 Descending Oakland Center
Fri 04:43:25 PM 38.5469 -121.3114 237° Southwest 109 125 100  Level Oakland Center
Fri 04:44:27 PM 38.5422 -121.3167 221° Southwest 80 92 100  Level Oakland Center

Login

Don't have an account? Register now (free) for customized features, flight alerts, and more!